Time;durP1;ratioP1;P1;durP2;ratioP2;P2;SDS_P1;SDS_P2;PMS_P1;PMS_P2;Temp;Humidity;BMP_temperature;BMP_pressure;BME280_temperature;BME280_humidity;BME280_pressure;Samples;Min_cycle;Max_cycle;Signal;HPM_P1;HPM_P2
2022/01/01 00:01:48;;;;;;;14.80;11.10;;;;;;;;;;5086111;28;20180;-56
2022/01/01 00:04:14;;;;;;;16.23;11.30;;;;;;;;;;5085396;28;20172;-56
2022/01/01 00:06:40;;;;;;;17.50;11.17;;;;;;;;;;5085284;28;20702;-56
2022/01/01 00:09:06;;;;;;;15.73;10.37;;;;;;;;;;5083228;28;20171;-56
2022/01/01 00:11:32;;;;;;;19.37;11.37;;;;;;;;;;5086776;28;20246;-56
2022/01/01 00:13:58;;;;;;;17.07;11.97;;;;;;;;;;5075679;28;20655;-54
2022/01/01 00:16:24;;;;;;;18.47;12.23;;;;;;;;;;5087171;28;20517;-56
2022/01/01 00:18:50;;;;;;;15.07;11.50;;;;;;;;;;5087083;28;20179;-56
2022/01/01 00:21:17;;;;;;;14.60;11.10;;;;;;;;;;5087965;28;20181;-56
2022/01/01 00:23:43;;;;;;;16.73;11.67;;;;;;;;;;5086224;28;20846;-57
2022/01/01 00:26:09;;;;;;;17.27;10.57;;;;;;;;;;5085419;28;20172;-56
2022/01/01 00:28:35;;;;;;;14.17;10.97;;;;;;;;;;5086777;28;20764;-56
2022/01/01 00:31:01;;;;;;;14.97;11.00;;;;;;;;;;5065307;28;20196;-56
2022/01/01 00:33:29;;;;;;;17.20;12.27;;;;;;;;;;5087866;28;20687;-56
2022/01/01 00:35:55;;;;;;;14.40;11.33;;;;;;;;;;5086085;28;20207;-57
2022/01/01 00:38:21;;;;;;;15.33;11.23;;;;;;;;;;5070333;28;20181;-56
2022/01/01 00:40:47;;;;;;;15.03;9.57;;;;;;;;;;5086169;28;20186;-56
2022/01/01 00:43:13;;;;;;;14.43;10.33;;;;;;;;;;5084369;28;20226;-56
2022/01/01 00:45:40;;;;;;;15.97;11.13;;;;;;;;;;5085082;28;20202;-56
2022/01/01 00:48:06;;;;;;;14.53;10.83;;;;;;;;;;5085957;28;20726;-56
2022/01/01 00:50:32;;;;;;;12.47;10.37;;;;;;;;;;5088167;28;20657;-56
2022/01/01 00:52:59;;;;;;;15.77;11.20;;;;;;;;;;5063224;28;20212;-56
2022/01/01 00:55:25;;;;;;;12.73;10.57;;;;;;;;;;5050360;28;20192;-56
2022/01/01 00:57:51;;;;;;;16.57;10.10;;;;;;;;;;5049875;28;20559;-56
2022/01/01 01:00:17;;;;;;;14.67;9.83;;;;;;;;;;5064732;28;20169;-56
2022/01/01 01:02:43;;;;;;;14.23;10.03;;;;;;;;;;5047084;28;20180;-56
2022/01/01 01:05:09;;;;;;;16.10;10.43;;;;;;;;;;5075585;28;20226;-56
2022/01/01 01:07:35;;;;;;;16.90;10.47;;;;;;;;;;5084244;28;20172;-57
2022/01/01 01:10:02;;;;;;;11.10;9.30;;;;;;;;;;5077354;28;20195;-56
2022/01/01 01:12:37;;;;;;;13.53;8.77;;;;;;;;;;5057373;28;20188;-56
2022/01/01 01:15:04;;;;;;;14.20;9.77;;;;;;;;;;5063441;28;20204;-56
2022/01/01 01:17:30;;;;;;;12.37;9.73;;;;;;;;;;5074009;28;20176;-56
2022/01/01 01:19:56;;;;;;;13.33;9.73;;;;;;;;;;5067707;28;20187;-57
2022/01/01 01:22:22;;;;;;;12.87;9.40;;;;;;;;;;5067494;28;20172;-56
2022/01/01 01:24:48;;;;;;;12.43;8.90;;;;;;;;;;5067519;28;20177;-56
2022/01/01 01:27:14;;;;;;;15.90;9.47;;;;;;;;;;5067019;28;20184;-56
2022/01/01 01:29:43;;;;;;;12.27;9.87;;;;;;;;;;5066895;28;20186;-56
2022/01/01 01:32:09;;;;;;;11.07;8.13;;;;;;;;;;5083342;28;20249;-56
2022/01/01 01:34:35;;;;;;;12.80;8.90;;;;;;;;;;5066434;28;20200;-56
2022/01/01 01:37:01;;;;;;;13.10;9.47;;;;;;;;;;5050076;28;20687;-56
2022/01/01 01:39:28;;;;;;;11.83;8.97;;;;;;;;;;5065032;28;20714;-57
2022/01/01 01:41:54;;;;;;;12.93;9.13;;;;;;;;;;5072820;28;20181;-56
2022/01/01 01:44:29;;;;;;;11.93;8.97;;;;;;;;;;5067596;28;20280;-56
2022/01/01 01:46:55;;;;;;;12.90;8.63;;;;;;;;;;5066303;28;20265;-57
2022/01/01 01:49:21;;;;;;;9.83;7.97;;;;;;;;;;5048701;28;20177;-56
2022/01/01 01:51:47;;;;;;;14.80;9.40;;;;;;;;;;5066286;28;20636;-56
2022/01/01 01:54:13;;;;;;;11.63;8.40;;;;;;;;;;5048749;28;20226;-57
2022/01/01 01:56:40;;;;;;;14.67;9.40;;;;;;;;;;5065475;28;20200;-56
2022/01/01 01:59:06;;;;;;;12.23;9.07;;;;;;;;;;5067360;28;20168;-57
2022/01/01 02:01:32;;;;;;;11.07;8.97;;;;;;;;;;5066374;28;20656;-56
2022/01/01 02:03:58;;;;;;;10.63;9.43;;;;;;;;;;5067097;28;20263;-57
2022/01/01 02:06:25;;;;;;;11.60;9.03;;;;;;;;;;5078243;28;20271;-56
2022/01/01 02:08:52;;;;;;;12.97;7.93;;;;;;;;;;5069815;28;20184;-56
2022/01/01 02:11:19;;;;;;;12.13;8.30;;;;;;;;;;5056708;28;20183;-57
2022/01/01 02:14:03;;;;;;;14.23;8.97;;;;;;;;;;5070173;28;20184;-57
2022/01/01 02:16:37;;;;;;;12.47;9.20;;;;;;;;;;5067638;28;20172;-57
2022/01/01 02:19:03;;;;;;;13.07;8.90;;;;;;;;;;5070140;28;20500;-56
2022/01/01 02:21:29;;;;;;;13.40;8.97;;;;;;;;;;5079852;28;20219;-56
2022/01/01 02:23:59;;;;;;;14.83;9.30;;;;;;;;;;5058965;28;20290;-56
2022/01/01 02:26:33;;;;;;;14.13;8.87;;;;;;;;;;5065899;28;20167;-57
2022/01/01 02:28:59;;;;;;;11.77;8.37;;;;;;;;;;5069825;28;20171;-57
2022/01/01 02:31:25;;;;;;;13.83;8.50;;;;;;;;;;5065593;28;20255;-57
2022/01/01 02:33:51;;;;;;;13.73;9.20;;;;;;;;;;5066783;28;20234;-56
2022/01/01 02:36:29;;;;;;;11.40;8.40;;;;;;;;;;5049018;28;20173;-57
2022/01/01 02:38:55;;;;;;;14.47;9.77;;;;;;;;;;5071350;28;20201;-56
2022/01/01 02:41:21;;;;;;;12.20;9.17;;;;;;;;;;5065739;28;20172;-56
2022/01/01 02:43:47;;;;;;;13.97;9.63;;;;;;;;;;5072231;28;20187;-57
2022/01/01 02:46:14;;;;;;;16.73;9.00;;;;;;;;;;5070695;28;20616;-56
2022/01/01 02:48:44;;;;;;;12.57;9.67;;;;;;;;;;5072524;28;20524;-57
2022/01/01 02:51:10;;;;;;;15.53;10.13;;;;;;;;;;5069063;28;20149;-56
2022/01/01 02:53:36;;;;;;;17.20;9.93;;;;;;;;;;5068731;28;20238;-57
2022/01/01 02:56:02;;;;;;;13.63;8.93;;;;;;;;;;5054208;28;20212;-57
2022/01/01 02:58:28;;;;;;;11.63;9.50;;;;;;;;;;5069542;28;20835;-57
2022/01/01 03:00:54;;;;;;;14.73;11.53;;;;;;;;;;5069657;28;20173;-57
2022/01/01 03:03:20;;;;;;;14.33;11.10;;;;;;;;;;5075372;28;20171;-57
2022/01/01 03:05:46;;;;;;;13.40;9.73;;;;;;;;;;5074918;28;20176;-56
2022/01/01 03:08:12;;;;;;;13.03;10.57;;;;;;;;;;5071852;28;20199;-57
2022/01/01 03:10:38;;;;;;;15.57;10.30;;;;;;;;;;5069513;28;20671;-56
2022/01/01 03:13:04;;;;;;;10.40;8.70;;;;;;;;;;5070790;28;20683;-56
2022/01/01 03:15:30;;;;;;;13.73;9.63;;;;;;;;;;5052066;28;20200;-56
2022/01/01 03:17:56;;;;;;;14.47;10.23;;;;;;;;;;5071642;28;20177;-57
2022/01/01 03:20:22;;;;;;;13.27;9.77;;;;;;;;;;5069766;28;20168;-55
2022/01/01 03:22:48;;;;;;;15.63;10.40;;;;;;;;;;5060312;28;20187;-56
2022/01/01 03:25:14;;;;;;;21.20;10.97;;;;;;;;;;5070346;28;20544;-57
2022/01/01 03:27:40;;;;;;;15.10;10.20;;;;;;;;;;5073384;28;20184;-56
2022/01/01 03:30:07;;;;;;;17.80;10.53;;;;;;;;;;5070482;28;20194;-56
2022/01/01 03:32:33;;;;;;;14.87;10.83;;;;;;;;;;5073845;28;20275;-57
2022/01/01 03:34:59;;;;;;;16.27;11.07;;;;;;;;;;5074464;28;20208;-56
2022/01/01 03:37:25;;;;;;;14.63;10.43;;;;;;;;;;5071229;28;20181;-56
2022/01/01 03:39:51;;;;;;;12.83;9.60;;;;;;;;;;5068614;28;20179;-56
2022/01/01 03:42:17;;;;;;;17.60;11.37;;;;;;;;;;5080071;28;20493;-56
2022/01/01 03:44:43;;;;;;;14.47;10.60;;;;;;;;;;5069083;28;20184;-57
2022/01/01 03:47:09;;;;;;;14.37;10.97;;;;;;;;;;5070752;28;20184;-56
2022/01/01 03:49:36;;;;;;;16.30;11.27;;;;;;;;;;5051288;28;20184;-57
2022/01/01 03:52:02;;;;;;;14.30;10.50;;;;;;;;;;5071053;28;20238;-57
2022/01/01 03:54:29;;;;;;;14.27;10.73;;;;;;;;;;5066421;28;20976;-57
2022/01/01 03:56:56;;;;;;;12.50;10.40;;;;;;;;;;5051564;28;20312;-57
2022/01/01 03:59:23;;;;;;;15.47;10.23;;;;;;;;;;5068895;28;20177;-57
2022/01/01 04:01:49;;;;;;;16.07;10.97;;;;;;;;;;5069374;28;20736;-57
2022/01/01 04:04:15;;;;;;;12.83;9.17;;;;;;;;;;5068316;28;20212;-56
2022/01/01 04:06:41;;;;;;;13.97;9.37;;;;;;;;;;5067000;28;20183;-56
2022/01/01 04:09:07;;;;;;;15.80;10.50;;;;;;;;;;5075040;28;20184;-57
2022/01/01 04:11:35;;;;;;;12.83;10.30;;;;;;;;;;5051144;28;20177;-57
2022/01/01 04:14:02;;;;;;;11.10;9.50;;;;;;;;;;5050745;28;20260;-57
2022/01/01 04:16:28;;;;;;;15.93;11.00;;;;;;;;;;5050015;28;20186;-57
2022/01/01 04:18:54;;;;;;;13.70;10.10;;;;;;;;;;5067849;28;20690;-57
2022/01/01 04:21:20;;;;;;;13.23;9.53;;;;;;;;;;5069043;28;20210;-57
2022/01/01 04:23:46;;;;;;;14.33;9.80;;;;;;;;;;5068198;28;20175;-57
2022/01/01 04:26:12;;;;;;;11.93;9.57;;;;;;;;;;5069506;28;20186;-57
2022/01/01 04:28:40;;;;;;;13.23;9.10;;;;;;;;;;5067856;28;20296;-57
2022/01/01 04:31:06;;;;;;;13.50;10.57;;;;;;;;;;5050563;28;20264;-57
2022/01/01 04:33:32;;;;;;;14.37;9.53;;;;;;;;;;5070408;28;20273;-57
2022/01/01 04:35:58;;;;;;;11.87;9.63;;;;;;;;;;5076616;28;20202;-57
2022/01/01 04:38:39;;;;;;;13.13;9.37;;;;;;;;;;5066696;28;20704;-57
2022/01/01 04:41:05;;;;;;;10.70;8.23;;;;;;;;;;5069662;28;20188;-57
2022/01/01 04:43:31;;;;;;;12.13;8.17;;;;;;;;;;5049492;28;20644;-57
2022/01/01 04:45:57;;;;;;;12.63;8.90;;;;;;;;;;5069746;28;20615;-57
2022/01/01 04:48:23;;;;;;;12.93;9.40;;;;;;;;;;5065736;28;20425;-57
2022/01/01 04:50:49;;;;;;;12.47;8.30;;;;;;;;;;5068627;28;20638;-57
2022/01/01 04:53:17;;;;;;;12.67;9.10;;;;;;;;;;5058587;28;20227;-57
2022/01/01 04:55:44;;;;;;;11.10;8.33;;;;;;;;;;5073725;28;20244;-57
2022/01/01 04:58:10;;;;;;;13.60;8.13;;;;;;;;;;5086095;28;20200;-57
2022/01/01 05:00:36;;;;;;;11.87;8.83;;;;;;;;;;5086493;28;20229;-57
2022/01/01 05:03:02;;;;;;;12.48;9.25;;;;;;;;;;5085876;28;20925;-57
2022/01/01 05:05:28;;;;;;;12.20;8.23;;;;;;;;;;5086824;28;20171;-57
2022/01/01 05:07:54;;;;;;;12.13;9.77;;;;;;;;;;5087042;28;20186;-57
2022/01/01 05:10:20;;;;;;;11.73;9.63;;;;;;;;;;5085385;28;20214;-57
2022/01/01 05:12:47;;;;;;;12.13;8.20;;;;;;;;;;5086124;28;20189;-57
2022/01/01 05:15:13;;;;;;;10.97;8.50;;;;;;;;;;5067761;28;20242;-56
2022/01/01 05:17:39;;;;;;;11.07;8.73;;;;;;;;;;5086821;28;20172;-57
2022/01/01 05:20:05;;;;;;;12.53;8.07;;;;;;;;;;5084963;28;20179;-56
2022/01/01 05:22:31;;;;;;;13.10;8.07;;;;;;;;;;5087238;28;20189;-57
2022/01/01 05:24:59;;;;;;;9.40;8.23;;;;;;;;;;5077446;28;20180;-57
2022/01/01 05:27:26;;;;;;;9.73;7.73;;;;;;;;;;5086918;28;20279;-56
2022/01/01 05:29:52;;;;;;;11.17;9.40;;;;;;;;;;5086048;28;20267;-56
2022/01/01 05:32:18;;;;;;;11.90;8.37;;;;;;;;;;5086872;28;20225;-56
2022/01/01 05:34:44;;;;;;;10.90;8.07;;;;;;;;;;5082966;28;20211;-56
2022/01/01 05:37:10;;;;;;;12.10;7.73;;;;;;;;;;5084871;28;20209;-57
2022/01/01 05:39:36;;;;;;;9.37;7.10;;;;;;;;;;5075272;28;20183;-57
2022/01/01 05:42:03;;;;;;;12.30;8.90;;;;;;;;;;5079167;28;20535;-57
2022/01/01 05:44:29;;;;;;;10.00;7.20;;;;;;;;;;5087165;28;20175;-57
2022/01/01 05:46:55;;;;;;;11.93;7.63;;;;;;;;;;5068880;28;20187;-57
2022/01/01 05:49:21;;;;;;;13.13;7.43;;;;;;;;;;5085990;28;20190;-56
2022/01/01 05:51:47;;;;;;;13.13;8.20;;;;;;;;;;5086237;28;20175;-57
2022/01/01 05:54:13;;;;;;;11.90;7.80;;;;;;;;;;5085760;28;20722;-57
2022/01/01 05:56:39;;;;;;;10.93;7.80;;;;;;;;;;5086819;28;20551;-56
2022/01/01 05:59:06;;;;;;;10.47;7.97;;;;;;;;;;5087461;28;20506;-57
2022/01/01 06:01:32;;;;;;;11.77;6.80;;;;;;;;;;5087055;28;20537;-56
2022/01/01 06:03:58;;;;;;;11.73;8.17;;;;;;;;;;5087078;28;20234;-56
2022/01/01 06:06:24;;;;;;;11.27;7.63;;;;;;;;;;5087035;28;20211;-57
2022/01/01 06:08:50;;;;;;;11.23;7.87;;;;;;;;;;5086532;28;20168;-56
2022/01/01 06:11:16;;;;;;;12.00;7.80;;;;;;;;;;5087736;28;20180;-57
2022/01/01 06:13:42;;;;;;;10.43;7.13;;;;;;;;;;5064069;28;20317;-56
2022/01/01 06:16:08;;;;;;;11.73;6.77;;;;;;;;;;5087114;28;20823;-56
2022/01/01 06:18:34;;;;;;;13.83;7.40;;;;;;;;;;5083926;28;20266;-57
2022/01/01 06:21:02;;;;;;;12.13;7.30;;;;;;;;;;5086451;28;20182;-56
2022/01/01 06:23:28;;;;;;;10.03;7.07;;;;;;;;;;5086346;28;20174;-56
2022/01/01 06:25:54;;;;;;;10.87;6.50;;;;;;;;;;5084362;28;20195;-56
2022/01/01 06:28:20;;;;;;;11.80;7.10;;;;;;;;;;5085040;28;20227;-57
2022/01/01 06:30:47;;;;;;;8.37;6.27;;;;;;;;;;5085639;28;20283;-56
2022/01/01 06:33:13;;;;;;;7.90;6.30;;;;;;;;;;5083015;28;20202;-57
2022/01/01 06:35:42;;;;;;;10.27;6.63;;;;;;;;;;5082694;28;20256;-56
2022/01/01 06:38:09;;;;;;;8.07;6.50;;;;;;;;;;5083807;28;20206;-56
2022/01/01 06:40:35;;;;;;;8.27;5.60;;;;;;;;;;5078806;28;20220;-56
2022/01/01 06:43:01;;;;;;;9.37;6.87;;;;;;;;;;5071631;28;20263;-56
2022/01/01 06:45:27;;;;;;;8.67;6.47;;;;;;;;;;5085991;28;20229;-56
2022/01/01 06:47:53;;;;;;;9.40;6.60;;;;;;;;;;5084271;28;20233;-57
2022/01/01 06:50:19;;;;;;;8.30;5.83;;;;;;;;;;5079548;28;20712;-56
2022/01/01 06:52:46;;;;;;;8.57;7.00;;;;;;;;;;5076652;28;20714;-56
2022/01/01 06:55:13;;;;;;;8.87;6.37;;;;;;;;;;5059958;28;20686;-56
2022/01/01 06:57:42;;;;;;;13.27;6.03;;;;;;;;;;5047566;28;20234;-56
2022/01/01 07:00:09;;;;;;;9.90;6.00;;;;;;;;;;5064135;28;20196;-56
2022/01/01 07:02:42;;;;;;;9.80;6.40;;;;;;;;;;5057010;28;20458;-56
2022/01/01 07:05:09;;;;;;;8.37;5.33;;;;;;;;;;5065011;28;20195;-57
2022/01/01 07:07:35;;;;;;;6.63;4.87;;;;;;;;;;5063789;28;20196;-56
2022/01/01 07:10:02;;;;;;;8.17;5.20;;;;;;;;;;5064495;28;20181;-57
2022/01/01 07:12:28;;;;;;;6.23;5.30;;;;;;;;;;5066555;28;20216;-56
2022/01/01 07:14:54;;;;;;;6.47;5.23;;;;;;;;;;5063133;28;20666;-56
2022/01/01 07:17:20;;;;;;;6.00;5.40;;;;;;;;;;5046810;28;20176;-56
2022/01/01 07:19:46;;;;;;;7.73;4.63;;;;;;;;;;5060158;28;20192;-56
2022/01/01 07:22:12;;;;;;;8.27;5.03;;;;;;;;;;5065767;28;20211;-57
2022/01/01 07:24:38;;;;;;;8.23;5.10;;;;;;;;;;5063116;28;20658;-56
2022/01/01 07:27:04;;;;;;;6.77;4.73;;;;;;;;;;5066849;28;20184;-57
2022/01/01 07:29:31;;;;;;;6.60;5.10;;;;;;;;;;5063344;28;20223;-57
2022/01/01 07:31:57;;;;;;;6.50;4.63;;;;;;;;;;5069034;28;20186;-56
2022/01/01 07:34:23;;;;;;;10.80;4.67;;;;;;;;;;5049751;28;20200;-56
2022/01/01 07:36:49;;;;;;;5.87;4.43;;;;;;;;;;5068249;28;20275;-56
2022/01/01 07:39:15;;;;;;;6.43;4.60;;;;;;;;;;5068127;28;20184;-56
2022/01/01 07:41:42;;;;;;;7.80;4.43;;;;;;;;;;5069333;28;20173;-57
2022/01/01 07:44:09;;;;;;;6.33;4.13;;;;;;;;;;5068264;28;20526;-56
2022/01/01 07:46:35;;;;;;;6.50;3.80;;;;;;;;;;5066691;28;20181;-56
2022/01/01 07:49:01;;;;;;;9.93;4.90;;;;;;;;;;5045064;28;20173;-57
2022/01/01 07:51:27;;;;;;;5.50;4.13;;;;;;;;;;5068044;28;20168;-56
2022/01/01 07:53:53;;;;;;;7.97;4.23;;;;;;;;;;5064070;28;20200;-57
2022/01/01 07:56:19;;;;;;;7.93;4.80;;;;;;;;;;5071521;28;20195;-56
2022/01/01 07:58:45;;;;;;;7.87;4.87;;;;;;;;;;5069114;28;20592;-57
2022/01/01 08:01:11;;;;;;;7.33;4.57;;;;;;;;;;5068347;28;20180;-57
2022/01/01 08:03:37;;;;;;;6.50;4.40;;;;;;;;;;5067459;28;20172;-56
2022/01/01 08:06:03;;;;;;;5.80;4.30;;;;;;;;;;5073925;28;20631;-57
2022/01/01 08:08:29;;;;;;;9.03;4.90;;;;;;;;;;5068319;28;20729;-57
2022/01/01 08:10:56;;;;;;;8.20;4.03;;;;;;;;;;5074070;28;20171;-56
2022/01/01 08:13:24;;;;;;;5.33;4.07;;;;;;;;;;5068328;28;20233;-56
2022/01/01 08:15:51;;;;;;;7.73;4.00;;;;;;;;;;5048692;28;20614;-57
2022/01/01 08:18:17;;;;;;;5.97;4.20;;;;;;;;;;5076391;28;20550;-56
2022/01/01 08:20:44;;;;;;;7.90;3.83;;;;;;;;;;5067178;28;20517;-57
2022/01/01 08:23:10;;;;;;;5.83;4.07;;;;;;;;;;5067855;28;20172;-57
2022/01/01 08:25:36;;;;;;;6.80;3.43;;;;;;;;;;5066709;28;20211;-57
2022/01/01 08:28:02;;;;;;;8.23;3.83;;;;;;;;;;5068013;28;20181;-57
2022/01/01 08:30:28;;;;;;;6.90;4.27;;;;;;;;;;5066264;28;20203;-56
2022/01/01 08:33:01;;;;;;;5.43;3.73;;;;;;;;;;5049214;28;20571;-57
2022/01/01 08:35:27;;;;;;;6.37;3.60;;;;;;;;;;5053095;28;20285;-57
2022/01/01 08:37:53;;;;;;;8.17;3.93;;;;;;;;;;5063184;28;20177;-55
2022/01/01 08:40:19;;;;;;;6.50;4.13;;;;;;;;;;5048807;28;20172;-57
2022/01/01 08:42:45;;;;;;;5.90;3.60;;;;;;;;;;5065798;28;20204;-56
2022/01/01 08:45:11;;;;;;;5.70;3.37;;;;;;;;;;5066917;28;20246;-57
2022/01/01 08:47:37;;;;;;;5.90;3.87;;;;;;;;;;5065763;28;20180;-57
2022/01/01 08:50:04;;;;;;;7.10;3.80;;;;;;;;;;5066209;28;20172;-57
2022/01/01 08:52:30;;;;;;;7.20;3.97;;;;;;;;;;5067976;28;20230;-56
2022/01/01 08:54:56;;;;;;;6.07;3.63;;;;;;;;;;5061175;28;20207;-57
2022/01/01 08:57:23;;;;;;;9.20;3.83;;;;;;;;;;5070583;28;20345;-57
2022/01/01 08:59:49;;;;;;;5.70;3.83;;;;;;;;;;5061813;28;20172;-56
2022/01/01 09:02:15;;;;;;;6.73;3.93;;;;;;;;;;5076317;28;20177;-57
2022/01/01 09:04:41;;;;;;;5.70;3.00;;;;;;;;;;5076932;28;20497;-57
2022/01/01 09:07:07;;;;;;;5.10;3.60;;;;;;;;;;5076944;28;20184;-57
2022/01/01 09:09:33;;;;;;;5.50;3.33;;;;;;;;;;5086300;28;20184;-57
2022/01/01 09:11:59;;;;;;;7.83;3.20;;;;;;;;;;5078329;28;20187;-57
2022/01/01 09:14:25;;;;;;;7.00;3.43;;;;;;;;;;5087615;28;20204;-57
2022/01/01 09:16:51;;;;;;;5.03;3.57;;;;;;;;;;5067780;28;20657;-57
2022/01/01 09:19:19;;;;;;;5.97;3.67;;;;;;;;;;5074568;28;20181;-57
2022/01/01 09:21:45;;;;;;;6.00;4.00;;;;;;;;;;5079248;28;20183;-56
2022/01/01 09:24:11;;;;;;;6.07;3.80;;;;;;;;;;5086273;28;20179;-57
2022/01/01 09:26:37;;;;;;;5.27;3.43;;;;;;;;;;5083514;28;20180;-56
2022/01/01 09:29:04;;;;;;;4.50;3.37;;;;;;;;;;5060226;28;20171;-56
2022/01/01 09:31:31;;;;;;;5.20;3.70;;;;;;;;;;5085969;28;20176;-57
2022/01/01 09:33:57;;;;;;;8.03;4.23;;;;;;;;;;5084003;28;20198;-55
2022/01/01 09:36:23;;;;;;;9.80;3.90;;;;;;;;;;5087901;28;20334;-57
2022/01/01 09:38:50;;;;;;;6.23;3.90;;;;;;;;;;5086369;28;20175;-56
2022/01/01 09:41:16;;;;;;;4.57;3.17;;;;;;;;;;5069909;28;20688;-57
2022/01/01 09:43:42;;;;;;;5.87;3.97;;;;;;;;;;5081136;28;20175;-56
2022/01/01 09:46:10;;;;;;;4.33;3.47;;;;;;;;;;5083943;28;20176;-57
2022/01/01 09:48:37;;;;;;;8.17;4.50;;;;;;;;;;5061145;28;20192;-57
2022/01/01 09:51:03;;;;;;;4.27;3.70;;;;;;;;;;5083706;28;20707;-57
2022/01/01 09:53:30;;;;;;;7.93;4.40;;;;;;;;;;5056236;28;20224;-56
2022/01/01 09:55:57;;;;;;;5.57;4.60;;;;;;;;;;5067294;28;20204;-56
2022/01/01 09:58:27;;;;;;;7.53;4.13;;;;;;;;;;5061482;28;20172;-57
2022/01/01 10:00:54;;;;;;;7.47;4.37;;;;;;;;;;5067320;28;20227;-56
2022/01/01 10:03:30;;;;;;;6.40;4.07;;;;;;;;;;5066293;28;20183;-56
2022/01/01 10:06:00;;;;;;;4.77;3.80;;;;;;;;;;5068102;28;20247;-56
2022/01/01 10:08:27;;;;;;;6.23;4.13;;;;;;;;;;5068471;28;20635;-56
2022/01/01 10:10:53;;;;;;;6.53;4.23;;;;;;;;;;5078874;28;21004;-57
2022/01/01 10:13:25;;;;;;;5.80;3.97;;;;;;;;;;5051814;28;20197;-56
2022/01/01 10:15:53;;;;;;;8.80;3.80;;;;;;;;;;5067888;28;20709;-57
2022/01/01 10:18:23;;;;;;;7.20;3.97;;;;;;;;;;5048781;28;20191;-57
2022/01/01 10:20:55;;;;;;;6.83;4.17;;;;;;;;;;5066622;28;20604;-57
2022/01/01 10:23:26;;;;;;;9.80;4.30;;;;;;;;;;5060167;28;20165;-57
2022/01/01 10:28:37;;;;;;;7.27;4.30;;;;;;;;;;5057345;28;20280;-56
2022/01/01 10:31:08;;;;;;;8.27;4.90;;;;;;;;;;5049422;28;20651;-57
2022/01/01 10:33:34;;;;;;;7.10;4.07;;;;;;;;;;5043025;28;20189;-57
2022/01/01 10:36:06;;;;;;;6.00;3.77;;;;;;;;;;5071488;28;20213;-56
2022/01/01 10:38:32;;;;;;;5.50;3.27;;;;;;;;;;5046558;28;20725;-57
2022/01/01 10:41:09;;;;;;;9.47;3.87;;;;;;;;;;5078919;28;20649;-57
2022/01/01 10:43:41;;;;;;;5.03;2.80;;;;;;;;;;5068430;28;20188;-56
2022/01/01 10:46:08;;;;;;;6.43;3.23;;;;;;;;;;5065598;28;20712;-57
2022/01/01 10:51:05;;;;;;;6.80;3.40;;;;;;;;;;5064538;28;20585;-57
2022/01/01 10:53:31;;;;;;;5.47;3.20;;;;;;;;;;5077358;28;20249;-56
2022/01/01 10:55:59;;;;;;;7.80;3.00;;;;;;;;;;5069054;28;20231;-56
2022/01/01 10:58:29;;;;;;;9.03;2.93;;;;;;;;;;5085078;28;20716;-59
2022/01/01 11:01:00;;;;;;;11.83;3.33;;;;;;;;;;5085505;28;20646;-58
2022/01/01 11:03:27;;;;;;;4.23;2.90;;;;;;;;;;5086516;28;20203;-57
2022/01/01 11:06:03;;;;;;;6.30;3.53;;;;;;;;;;5088700;28;20190;-58
2022/01/01 11:08:29;;;;;;;5.50;3.07;;;;;;;;;;5089786;28;20175;-59
2022/01/01 11:10:55;;;;;;;7.93;3.80;;;;;;;;;;5090977;28;20227;-58
2022/01/01 11:13:22;;;;;;;5.43;2.90;;;;;;;;;;5089642;28;20623;-58
2022/01/01 11:15:48;;;;;;;6.40;3.37;;;;;;;;;;5090340;28;20196;-57
2022/01/01 11:18:14;;;;;;;5.07;3.67;;;;;;;;;;5062898;28;21015;-59
2022/01/01 11:20:40;;;;;;;3.63;2.93;;;;;;;;;;5063481;28;20188;-58
2022/01/01 11:23:10;;;;;;;4.50;2.83;;;;;;;;;;5089399;28;20190;-59
2022/01/01 11:25:37;;;;;;;3.93;2.80;;;;;;;;;;5071202;28;20457;-58
2022/01/01 11:28:07;;;;;;;4.77;3.17;;;;;;;;;;5084198;28;20179;-59
2022/01/01 11:30:35;;;;;;;4.68;3.50;;;;;;;;;;5082736;28;20429;-59
2022/01/01 11:33:09;;;;;;;5.77;3.57;;;;;;;;;;5084705;28;20706;-58
2022/01/01 11:35:36;;;;;;;3.97;3.03;;;;;;;;;;5083531;28;21173;-59
2022/01/01 11:38:20;;;;;;;3.57;2.90;;;;;;;;;;5076445;28;20176;-60
2022/01/01 11:41:00;;;;;;;9.27;3.40;;;;;;;;;;5066523;28;20729;-59
2022/01/01 11:43:46;;;;;;;3.10;2.80;;;;;;;;;;5086082;28;20195;-59
2022/01/01 11:46:13;;;;;;;3.73;2.53;;;;;;;;;;5088968;28;20598;-59
2022/01/01 11:48:41;;;;;;;6.03;2.60;;;;;;;;;;5088371;28;20187;-60
2022/01/01 11:51:24;;;;;;;3.37;2.57;;;;;;;;;;5089862;28;20183;-58
2022/01/01 11:54:11;;;;;;;4.03;2.77;;;;;;;;;;5083624;28;20219;-59
2022/01/01 11:56:49;;;;;;;6.37;2.40;;;;;;;;;;5045434;28;20747;-59
2022/01/01 11:59:19;;;;;;;5.57;3.30;;;;;;;;;;5067060;28;20180;-59
2022/01/01 12:01:47;;;;;;;4.30;3.10;;;;;;;;;;5088889;28;20183;-59
2022/01/01 12:04:23;;;;;;;6.23;3.40;;;;;;;;;;5081213;28;20395;-61
2022/01/01 12:06:53;;;;;;;4.17;2.53;;;;;;;;;;5078535;28;20172;-59
2022/01/01 12:09:19;;;;;;;5.13;2.60;;;;;;;;;;5078858;28;20180;-60
2022/01/01 12:11:50;;;;;;;6.10;3.30;;;;;;;;;;5084340;28;20335;-60
2022/01/01 12:14:24;;;;;;;5.47;3.17;;;;;;;;;;5079178;28;20183;-59
2022/01/01 12:16:52;;;;;;;5.37;3.37;;;;;;;;;;5077869;28;20272;-60
2022/01/01 12:19:20;;;;;;;5.03;3.00;;;;;;;;;;5083594;28;20682;-60
2022/01/01 12:21:48;;;;;;;4.03;2.93;;;;;;;;;;5084844;28;20221;-59
2022/01/01 12:24:21;;;;;;;5.07;2.83;;;;;;;;;;5086798;28;20258;-59
2022/01/01 12:26:53;;;;;;;4.50;2.70;;;;;;;;;;5060966;28;20208;-59
2022/01/01 12:29:22;;;;;;;3.90;2.70;;;;;;;;;;5084594;28;20709;-58
2022/01/01 12:31:55;;;;;;;3.47;2.30;;;;;;;;;;5072749;28;20576;-60
2022/01/01 12:34:22;;;;;;;6.57;3.00;;;;;;;;;;5085947;28;20180;-59
2022/01/01 12:36:55;;;;;;;5.07;3.13;;;;;;;;;;5068550;28;20187;-59
2022/01/01 12:39:22;;;;;;;4.17;3.00;;;;;;;;;;5080425;28;20236;-59
2022/01/01 12:41:48;;;;;;;4.27;2.93;;;;;;;;;;5088828;28;20208;-59
2022/01/01 12:44:14;;;;;;;5.23;2.93;;;;;;;;;;5087831;28;20172;-60
2022/01/01 12:46:50;;;;;;;4.73;2.67;;;;;;;;;;5083130;28;20206;-59
2022/01/01 12:49:16;;;;;;;4.30;3.30;;;;;;;;;;5086950;28;20213;-59
2022/01/01 12:51:43;;;;;;;6.40;3.20;;;;;;;;;;5088908;28;20284;-59
2022/01/01 12:54:17;;;;;;;4.00;3.50;;;;;;;;;;5084807;28;20227;-58
2022/01/01 12:56:44;;;;;;;4.00;2.97;;;;;;;;;;5083866;28;20420;-59
2022/01/01 12:59:12;;;;;;;4.33;3.23;;;;;;;;;;5081846;28;20639;-61
2022/01/01 13:01:39;;;;;;;4.00;2.83;;;;;;;;;;5056065;28;20175;-59
2022/01/01 13:04:07;;;;;;;4.97;3.07;;;;;;;;;;5076890;28;20719;-60
2022/01/01 13:06:34;;;;;;;2.90;2.60;;;;;;;;;;5081018;28;20190;-59
2022/01/01 13:09:02;;;;;;;4.90;2.83;;;;;;;;;;5071463;28;20650;-59
2022/01/01 13:11:28;;;;;;;4.37;2.60;;;;;;;;;;5076596;28;20646;-58
2022/01/01 13:13:54;;;;;;;5.40;3.10;;;;;;;;;;5055422;28;20257;-59
2022/01/01 13:16:20;;;;;;;4.43;2.93;;;;;;;;;;5071607;28;20533;-59
2022/01/01 13:18:47;;;;;;;3.47;2.80;;;;;;;;;;5069662;28;20185;-59
2022/01/01 13:21:13;;;;;;;4.03;3.63;;;;;;;;;;5066615;28;20580;-58
2022/01/01 13:23:39;;;;;;;8.97;2.77;;;;;;;;;;5056804;28;20185;-59
2022/01/01 13:26:05;;;;;;;3.67;2.47;;;;;;;;;;5078968;28;20184;-58
2022/01/01 13:28:33;;;;;;;5.43;2.87;;;;;;;;;;5071440;28;20180;-60
2022/01/01 13:31:00;;;;;;;6.83;2.97;;;;;;;;;;5071336;28;20298;-59
2022/01/01 13:33:27;;;;;;;4.80;2.70;;;;;;;;;;5070521;28;20665;-60
2022/01/01 13:35:54;;;;;;;6.87;3.00;;;;;;;;;;5052037;28;20617;-58
2022/01/01 13:38:21;;;;;;;3.97;3.07;;;;;;;;;;5070508;28;20226;-61
2022/01/01 13:40:52;;;;;;;4.27;2.93;;;;;;;;;;5072979;28;20179;-59
2022/01/01 13:43:18;;;;;;;3.63;2.97;;;;;;;;;;5072763;28;20273;-60
2022/01/01 13:45:45;;;;;;;2.67;2.40;;;;;;;;;;5065301;28;20188;-60
2022/01/01 13:48:12;;;;;;;3.83;2.80;;;;;;;;;;5071365;28;20203;-59
2022/01/01 13:50:39;;;;;;;5.83;2.73;;;;;;;;;;5066057;28;20179;-59
2022/01/01 13:53:07;;;;;;;5.93;2.90;;;;;;;;;;5076145;28;20235;-58
2022/01/01 13:55:33;;;;;;;4.67;2.67;;;;;;;;;;5071382;28;20230;-59
2022/01/01 13:58:02;;;;;;;7.37;2.83;;;;;;;;;;5058662;28;20196;-59
2022/01/01 14:00:28;;;;;;;4.93;2.90;;;;;;;;;;5076223;28;20191;-58
2022/01/01 14:02:54;;;;;;;7.13;3.03;;;;;;;;;;5051324;28;20183;-60
2022/01/01 14:05:22;;;;;;;4.43;2.83;;;;;;;;;;5071865;28;20240;-59
2022/01/01 14:07:49;;;;;;;2.83;2.50;;;;;;;;;;5052693;28;20602;-58
2022/01/01 14:10:15;;;;;;;6.43;2.97;;;;;;;;;;5060493;28;20180;-59
2022/01/01 14:12:42;;;;;;;3.77;2.47;;;;;;;;;;5071279;28;20639;-58
2022/01/01 14:15:10;;;;;;;5.57;2.83;;;;;;;;;;5076104;28;20222;-58
2022/01/01 14:18:09;;;;;;;2.87;2.53;;;;;;;;;;5072564;28;20260;-59
2022/01/01 14:20:36;;;;;;;4.57;3.27;;;;;;;;;;5063285;28;20602;-61
2022/01/01 14:23:03;;;;;;;3.30;2.40;;;;;;;;;;5072347;28;20938;-59
2022/01/01 14:25:30;;;;;;;3.73;2.50;;;;;;;;;;5070971;28;20898;-59
2022/01/01 14:28:04;;;;;;;3.10;2.80;;;;;;;;;;5070255;28;20697;-60
2022/01/01 14:30:30;;;;;;;4.73;2.80;;;;;;;;;;5064129;28;20242;-60
2022/01/01 14:33:00;;;;;;;4.60;2.53;;;;;;;;;;5067739;28;20189;-58
2022/01/01 14:35:30;;;;;;;6.27;2.70;;;;;;;;;;5055723;28;20207;-58
2022/01/01 14:37:57;;;;;;;3.50;2.80;;;;;;;;;;5073138;28;20207;-59
2022/01/01 14:40:23;;;;;;;4.77;3.50;;;;;;;;;;5081614;28;20195;-58
2022/01/01 14:42:49;;;;;;;3.63;3.23;;;;;;;;;;5068702;28;20167;-59